createdAt,value
2022-08-20T00:02:17.207Z,23.30
2022-08-20T00:04:45.877Z,23.20
2022-08-20T00:07:16.659Z,23.10
2022-08-20T00:09:45.787Z,23.00
2022-08-20T00:12:17.310Z,22.90
2022-08-20T00:14:47.070Z,22.90
2022-08-20T00:17:15.758Z,22.80
2022-08-20T00:19:43.969Z,22.80
2022-08-20T00:22:13.659Z,22.70
2022-08-20T00:24:42.002Z,22.70
2022-08-20T00:27:10.338Z,22.50
2022-08-20T00:29:38.594Z,22.50
2022-08-20T00:32:08.543Z,22.40
2022-08-20T00:34:36.802Z,22.30
2022-08-20T00:37:05.156Z,22.10
2022-08-20T00:39:33.408Z,22.00
2022-08-20T00:42:01.946Z,22.10
2022-08-20T00:44:30.568Z,22.00
2022-08-20T00:46:58.772Z,22.00
2022-08-20T00:49:30.436Z,22.00
2022-08-20T00:52:03.034Z,22.00
2022-08-20T00:54:36.420Z,22.00
2022-08-20T00:57:10.957Z,21.90
2022-08-20T00:59:41.356Z,21.90
2022-08-20T01:02:14.394Z,21.80
2022-08-20T01:04:46.778Z,21.80
2022-08-20T01:07:15.025Z,21.90
2022-08-20T01:09:57.863Z,21.90
2022-08-20T01:12:30.034Z,21.80
2022-08-20T01:15:00.707Z,21.80
2022-08-20T01:17:32.577Z,21.90
2022-08-20T01:20:11.490Z,21.80
2022-08-20T01:22:59.785Z,21.80
2022-08-20T01:25:40.043Z,21.90
2022-08-20T01:28:09.131Z,21.90
2022-08-20T01:30:38.743Z,21.70
2022-08-20T01:33:07.663Z,21.70
2022-08-20T01:35:38.059Z,21.70
2022-08-20T01:38:10.124Z,21.60
2022-08-20T01:40:56.202Z,21.60
2022-08-20T01:43:24.613Z,21.50
2022-08-20T01:45:53.965Z,21.40
2022-08-20T01:48:23.603Z,21.40
2022-08-20T01:50:58.889Z,21.50
2022-08-20T01:53:34.172Z,21.40
2022-08-20T01:56:05.945Z,21.40
2022-08-20T01:58:36.403Z,21.30
2022-08-20T02:01:04.795Z,21.40
2022-08-20T02:03:38.826Z,21.40
2022-08-20T02:06:10.356Z,21.40
2022-08-20T02:08:38.552Z,21.40
2022-08-20T02:11:08.660Z,21.40
2022-08-20T02:13:37.052Z,21.50
2022-08-20T02:16:08.638Z,21.40
2022-08-20T02:18:37.533Z,21.30
2022-08-20T02:21:08.104Z,21.30
2022-08-20T02:23:36.175Z,21.30
2022-08-20T02:26:04.499Z,21.50
2022-08-20T02:28:34.732Z,21.50
2022-08-20T02:31:04.029Z,21.60
2022-08-20T02:33:32.215Z,21.70
2022-08-20T02:36:00.409Z,21.50
2022-08-20T02:38:28.682Z,21.50
2022-08-20T02:40:57.054Z,21.40
2022-08-20T02:43:25.374Z,21.40
2022-08-20T02:45:55.704Z,21.40
2022-08-20T02:48:24.118Z,21.30
2022-08-20T02:50:56.823Z,21.20
2022-08-20T02:53:25.904Z,21.10
2022-08-20T02:55:54.490Z,21.10
2022-08-20T02:58:23.850Z,21.20
2022-08-20T03:00:56.839Z,21.20
2022-08-20T03:03:25.821Z,21.10
2022-08-20T03:05:56.834Z,21.10
2022-08-20T03:08:27.074Z,21.20
2022-08-20T03:10:56.460Z,21.10
2022-08-20T03:13:25.886Z,21.20
2022-08-20T03:15:59.255Z,21.20
2022-08-20T03:18:31.160Z,21.20
2022-08-20T03:21:00.381Z,21.30
2022-08-20T03:23:31.291Z,21.20
2022-08-20T03:26:00.287Z,21.20
2022-08-20T03:28:29.290Z,21.00
2022-08-20T03:31:02.141Z,21.00
2022-08-20T03:33:31.568Z,21.10
2022-08-20T03:36:02.246Z,21.10
2022-08-20T03:38:33.183Z,21.00
2022-08-20T03:41:03.012Z,21.10
2022-08-20T03:43:35.254Z,21.10
2022-08-20T03:46:05.475Z,21.10
2022-08-20T03:48:50.446Z,21.10
2022-08-20T03:51:26.734Z,21.20
2022-08-20T03:53:55.107Z,21.40
2022-08-20T03:56:23.412Z,21.10
2022-08-20T03:58:51.794Z,21.10
2022-08-20T04:01:45.675Z,20.90
2022-08-20T04:04:12.969Z,20.90
2022-08-20T04:06:42.533Z,20.90
2022-08-20T04:09:11.843Z,20.90
2022-08-20T04:11:40.980Z,20.90
2022-08-20T04:14:11.171Z,21.00
2022-08-20T04:16:41.340Z,21.00
2022-08-20T04:19:09.927Z,21.00
2022-08-20T04:21:38.445Z,20.90
2022-08-20T04:24:07.674Z,21.30
2022-08-20T04:29:31.932Z,20.80
2022-08-20T04:32:05.973Z,20.90
2022-08-20T04:34:35.412Z,21.00
2022-08-20T04:37:04.182Z,20.70
2022-08-20T04:42:03.913Z,20.50
2022-08-20T04:44:32.670Z,20.50
2022-08-20T04:47:04.840Z,20.50
2022-08-20T04:49:33.161Z,20.50
2022-08-20T04:52:01.613Z,20.50
2022-08-20T04:54:32.811Z,20.60
2022-08-20T04:57:01.654Z,20.70
2022-08-20T04:59:32.757Z,20.70
2022-08-20T05:02:02.566Z,20.70
2022-08-20T05:04:32.290Z,20.80
2022-08-20T05:07:00.701Z,20.90
2022-08-20T05:09:29.012Z,20.90
2022-08-20T05:11:57.786Z,21.00
2022-08-20T05:14:26.237Z,20.90
2022-08-20T05:16:56.861Z,20.90
2022-08-20T05:19:26.885Z,21.00
2022-08-20T05:21:58.929Z,20.90
2022-08-20T05:26:58.514Z,21.00
2022-08-20T05:29:27.653Z,21.00
2022-08-20T05:31:56.702Z,21.00
2022-08-20T05:34:26.355Z,21.00
2022-08-20T05:36:55.392Z,21.00
2022-08-20T05:39:25.350Z,20.90
2022-08-20T05:41:53.873Z,21.00
2022-08-20T05:44:23.355Z,21.10
2022-08-20T05:46:54.337Z,21.10
2022-08-20T05:49:26.250Z,21.10
2022-08-20T05:51:56.898Z,21.00
2022-08-20T05:54:26.743Z,20.80
2022-08-20T05:56:55.503Z,20.70
2022-08-20T06:01:53.991Z,20.70
2022-08-20T06:04:25.181Z,20.80
2022-08-20T06:06:54.994Z,21.00
2022-08-20T06:09:31.959Z,21.00
2022-08-20T06:12:02.443Z,21.00
2022-08-20T06:14:31.560Z,21.00
2022-08-20T06:17:07.816Z,21.10
2022-08-20T06:19:38.157Z,21.10
2022-08-20T06:22:17.759Z,21.10
2022-08-20T06:24:51.622Z,21.10
2022-08-20T06:27:20.916Z,21.40
2022-08-20T06:29:53.859Z,21.40
2022-08-20T06:32:31.648Z,21.40
2022-08-20T06:35:02.336Z,21.60
2022-08-20T06:37:33.805Z,21.70
2022-08-20T06:40:09.657Z,22.00
2022-08-20T06:42:42.439Z,22.00
2022-08-20T06:45:14.507Z,21.90
2022-08-20T06:47:45.012Z,21.60
2022-08-20T06:50:15.362Z,21.60
2022-08-20T06:55:33.527Z,21.50
2022-08-20T06:58:04.465Z,21.40
2022-08-20T07:00:37.621Z,21.50
2022-08-20T07:03:06.429Z,21.60
2022-08-20T07:05:37.668Z,21.70
2022-08-20T07:08:06.826Z,21.80
2022-08-20T07:10:43.382Z,21.80
2022-08-20T07:13:12.679Z,21.80
2022-08-20T07:18:09.851Z,21.90
2022-08-20T07:20:40.867Z,21.90
2022-08-20T07:23:11.988Z,22.00
2022-08-20T07:25:43.481Z,22.00
2022-08-20T07:28:15.301Z,22.00
2022-08-20T07:31:12.181Z,21.80
2022-08-20T07:33:42.744Z,21.80
2022-08-20T07:36:14.027Z,22.00
2022-08-20T07:38:45.977Z,22.30
2022-08-20T07:41:16.013Z,22.50
2022-08-20T07:43:46.306Z,22.30
2022-08-20T07:46:17.648Z,22.10
2022-08-20T07:48:51.776Z,22.00
2022-08-20T07:51:22.488Z,22.00
2022-08-20T07:53:52.825Z,22.10
2022-08-20T07:56:24.768Z,22.40
2022-08-20T07:58:55.738Z,22.40
2022-08-20T08:01:26.697Z,22.40
2022-08-20T08:03:56.939Z,22.40
2022-08-20T08:06:29.813Z,22.30
2022-08-20T08:09:02.987Z,22.30
2022-08-20T08:11:34.604Z,22.80
2022-08-20T08:14:04.239Z,22.80
2022-08-20T08:16:35.863Z,22.90
2022-08-20T08:19:11.919Z,22.80
2022-08-20T08:21:40.288Z,22.60
2022-08-20T08:24:08.757Z,22.50
2022-08-20T08:26:38.946Z,22.60
2022-08-20T08:29:07.623Z,22.90
2022-08-20T08:31:35.884Z,23.00
2022-08-20T08:34:04.291Z,23.20
2022-08-20T08:36:34.804Z,23.20
2022-08-20T08:39:03.034Z,23.20
2022-08-20T08:41:33.961Z,23.60
2022-08-20T08:44:09.385Z,23.90
2022-08-20T08:46:42.401Z,23.20
2022-08-20T08:49:15.028Z,22.90
2022-08-20T08:51:46.382Z,23.00
2022-08-20T08:54:17.712Z,23.30
2022-08-20T08:56:49.884Z,23.30
2022-08-20T08:59:23.169Z,23.00
2022-08-20T09:01:57.187Z,23.00
2022-08-20T09:04:31.701Z,23.30
2022-08-20T09:07:02.644Z,23.50
2022-08-20T09:09:38.387Z,23.70
2022-08-20T09:12:10.965Z,23.90
2022-08-20T09:14:41.273Z,23.90
2022-08-20T09:17:10.152Z,24.00
2022-08-20T09:19:41.454Z,23.90
2022-08-20T09:22:10.820Z,24.00
2022-08-20T09:24:41.098Z,23.90
2022-08-20T09:27:10.582Z,24.10
2022-08-20T09:29:40.607Z,24.30
2022-08-20T09:32:11.953Z,24.60
2022-08-20T09:34:44.230Z,24.80
2022-08-20T09:37:13.382Z,25.10
2022-08-20T09:39:43.103Z,25.40
2022-08-20T09:42:15.508Z,25.80
2022-08-20T09:44:45.833Z,25.70
2022-08-20T09:47:14.674Z,25.60
2022-08-20T09:49:43.061Z,25.70
2022-08-20T09:52:23.687Z,25.50
2022-08-20T09:54:54.884Z,25.20
2022-08-20T09:57:23.754Z,25.00
2022-08-20T10:00:00.739Z,24.30
2022-08-20T10:02:34.764Z,24.40
2022-08-20T10:10:17.218Z,25.00
2022-08-20T10:12:46.129Z,25.30
2022-08-20T10:15:16.163Z,25.70
2022-08-20T10:17:45.082Z,26.30
2022-08-20T10:20:15.843Z,26.30
2022-08-20T10:22:47.236Z,26.40
2022-08-20T10:25:17.776Z,26.50
2022-08-20T10:27:46.351Z,26.50
2022-08-20T10:30:16.188Z,26.70
2022-08-20T10:32:44.500Z,26.70
2022-08-20T10:35:14.847Z,27.10
2022-08-20T10:37:46.615Z,26.80
2022-08-20T10:40:16.242Z,26.80
2022-08-20T10:42:45.164Z,26.30
2022-08-20T10:45:18.633Z,26.50
2022-08-20T10:47:48.330Z,26.80
2022-08-20T10:50:20.389Z,26.90
2022-08-20T10:52:48.884Z,26.80
2022-08-20T10:55:20.436Z,26.70
2022-08-20T10:57:49.470Z,25.80
2022-08-20T11:00:20.628Z,25.80
2022-08-20T11:05:21.537Z,26.20
2022-08-20T11:07:55.946Z,26.10
2022-08-20T11:10:33.427Z,26.40
2022-08-20T11:15:32.484Z,26.00
2022-08-20T11:18:03.891Z,25.70
2022-08-20T11:20:32.222Z,25.80
2022-08-20T11:23:01.082Z,25.80
2022-08-20T11:25:30.780Z,25.80
2022-08-20T11:27:59.701Z,26.10
2022-08-20T11:30:30.007Z,26.10
2022-08-20T11:33:01.222Z,26.50
2022-08-20T11:35:49.340Z,26.80
2022-08-20T11:38:19.032Z,26.90
2022-08-20T11:40:47.949Z,26.50
2022-08-20T11:43:17.590Z,26.30
2022-08-20T11:45:48.115Z,26.20
2022-08-20T11:48:18.271Z,25.90
2022-08-20T11:50:50.207Z,25.80
2022-08-20T11:53:19.378Z,25.70
2022-08-20T11:55:49.296Z,25.60
2022-08-20T11:58:18.093Z,25.70
2022-08-20T12:00:46.473Z,25.70
2022-08-20T12:03:15.058Z,25.90
2022-08-20T12:05:47.112Z,26.30
2022-08-20T12:08:25.252Z,27.50
2022-08-20T12:10:57.101Z,27.70
2022-08-20T12:13:30.774Z,28.00
2022-08-20T12:16:14.313Z,27.80
2022-08-20T12:18:42.862Z,27.90
2022-08-20T12:21:12.748Z,27.90
2022-08-20T12:23:42.368Z,27.70
2022-08-20T12:26:10.664Z,27.50
2022-08-20T12:28:41.334Z,27.40
2022-08-20T12:31:14.680Z,27.50
2022-08-20T12:33:45.458Z,27.20
2022-08-20T12:36:15.311Z,26.60
2022-08-20T12:38:43.647Z,26.40
2022-08-20T12:41:11.882Z,26.50
2022-08-20T12:43:40.197Z,27.30
2022-08-20T12:46:08.440Z,27.40
2022-08-20T12:48:36.580Z,27.60
2022-08-20T12:53:35.412Z,27.30
2022-08-20T12:56:05.659Z,27.20
2022-08-20T12:58:34.832Z,27.40
2022-08-20T13:01:03.270Z,27.70
2022-08-20T13:03:32.151Z,28.10
2022-08-20T13:06:03.220Z,27.70
2022-08-20T13:08:31.820Z,27.50
2022-08-20T13:11:01.953Z,27.70
2022-08-20T13:13:31.440Z,27.70
2022-08-20T13:16:00.095Z,27.70
2022-08-20T13:18:28.775Z,27.70
2022-08-20T13:20:57.294Z,27.90
2022-08-20T13:23:25.794Z,28.40
2022-08-20T13:25:54.312Z,28.60
2022-08-20T13:28:24.143Z,28.80
2022-08-20T13:30:52.720Z,28.70
2022-08-20T13:33:21.092Z,28.40
2022-08-20T13:35:49.418Z,28.40
2022-08-20T13:38:20.536Z,28.10
2022-08-20T13:40:49.123Z,28.30
2022-08-20T13:48:16.870Z,27.70
2022-08-20T13:50:47.221Z,27.80
2022-08-20T13:53:17.708Z,28.20
2022-08-20T13:55:46.653Z,28.20
2022-08-20T14:00:48.340Z,29.00
2022-08-20T14:03:20.026Z,28.70
2022-08-20T14:05:54.378Z,28.40
2022-08-20T14:08:25.638Z,27.80
2022-08-20T14:13:26.960Z,28.10
2022-08-20T14:15:57.306Z,28.00
2022-08-20T14:18:26.260Z,28.00
2022-08-20T14:20:57.845Z,27.80
2022-08-20T14:23:26.412Z,27.50
2022-08-20T14:25:55.216Z,27.60
2022-08-20T14:28:25.599Z,27.30
2022-08-20T14:30:54.132Z,27.30
2022-08-20T14:33:25.415Z,27.40
2022-08-20T14:36:03.073Z,27.50
2022-08-20T14:38:34.202Z,27.40
2022-08-20T14:41:02.579Z,27.20
2022-08-20T14:45:59.737Z,27.80
2022-08-20T14:48:35.186Z,27.50
2022-08-20T14:51:07.666Z,26.30
2022-08-20T14:53:40.472Z,27.40
2022-08-20T14:56:12.004Z,27.40
2022-08-20T14:58:40.747Z,27.20
2022-08-20T15:01:09.305Z,27.30
2022-08-20T15:03:39.288Z,27.30
2022-08-20T15:06:20.409Z,27.10
2022-08-20T15:08:52.389Z,26.80
2022-08-20T15:19:02.042Z,26.90
2022-08-20T15:21:45.363Z,27.00
2022-08-20T15:24:19.779Z,26.90
2022-08-20T15:26:52.042Z,26.70
2022-08-20T15:29:23.584Z,27.00
2022-08-20T15:39:29.851Z,26.80
2022-08-20T15:57:47.258Z,26.60
2022-08-20T16:00:22.173Z,26.80
2022-08-20T16:03:18.851Z,26.60
2022-08-20T16:05:57.551Z,26.50
2022-08-20T16:08:46.302Z,26.30
2022-08-20T16:11:26.779Z,26.20
2022-08-20T16:14:00.690Z,26.00
2022-08-20T16:16:37.590Z,26.10
2022-08-20T16:21:41.936Z,25.90
2022-08-20T16:24:12.894Z,26.10
2022-08-20T16:27:13.576Z,26.00
2022-08-20T16:29:52.886Z,26.10
2022-08-20T16:32:32.982Z,25.90
2022-08-20T16:35:12.300Z,25.80
2022-08-20T16:37:55.700Z,25.80
2022-08-20T16:40:29.224Z,25.80
2022-08-20T16:43:03.561Z,25.70
2022-08-20T16:45:50.754Z,25.70
2022-08-20T16:48:21.080Z,25.60
2022-08-20T16:50:58.469Z,25.70
2022-08-20T16:53:31.514Z,25.70
2022-08-20T16:56:00.138Z,25.70
2022-08-20T16:58:28.992Z,25.50
2022-08-20T17:01:11.611Z,25.50
2022-08-20T17:03:41.110Z,25.50
2022-08-20T17:06:20.704Z,25.50
2022-08-20T17:08:51.943Z,25.60
2022-08-20T17:11:27.232Z,25.50
2022-08-20T17:14:08.439Z,25.40
2022-08-20T17:16:39.418Z,25.30
2022-08-20T17:19:19.704Z,25.40
2022-08-20T17:21:51.097Z,25.10
2022-08-20T17:24:27.756Z,25.10
2022-08-20T17:27:02.399Z,25.10
2022-08-20T17:29:34.786Z,25.00
2022-08-20T17:32:17.005Z,25.10
2022-08-20T17:34:48.597Z,25.00
2022-08-20T17:37:24.022Z,25.00
2022-08-20T17:40:06.359Z,24.90
2022-08-20T17:42:47.130Z,24.80
2022-08-20T17:45:28.062Z,24.80
2022-08-20T17:47:59.922Z,24.70
2022-08-20T17:50:33.273Z,24.70
2022-08-20T17:53:12.117Z,24.50
2022-08-20T17:55:42.534Z,24.40
2022-08-20T17:58:14.033Z,24.40
2022-08-20T18:00:43.604Z,24.40
2022-08-20T18:03:19.818Z,24.50
2022-08-20T18:05:55.621Z,24.40
2022-08-20T18:08:32.617Z,24.30
2022-08-20T18:11:10.125Z,24.20
2022-08-20T18:13:57.388Z,24.20
2022-08-20T18:16:31.485Z,24.00
2022-08-20T18:19:07.347Z,24.10
2022-08-20T18:22:02.362Z,23.90
2022-08-20T18:24:39.651Z,23.90
2022-08-20T18:27:16.619Z,23.80
2022-08-20T18:30:03.260Z,23.80
2022-08-20T18:32:41.573Z,23.70
2022-08-20T18:35:18.757Z,23.80
2022-08-20T18:37:48.613Z,23.80
2022-08-20T18:40:28.980Z,24.00
2022-08-20T18:43:13.968Z,24.00
2022-08-20T18:48:22.725Z,23.80
2022-08-20T18:50:58.119Z,23.80
2022-08-20T18:53:34.331Z,23.70
2022-08-20T18:56:06.021Z,23.50
2022-08-20T18:58:50.016Z,23.50
2022-08-20T19:01:21.553Z,23.50
2022-08-20T19:03:58.188Z,23.50
2022-08-20T19:06:39.905Z,23.60
2022-08-20T19:09:18.066Z,23.20
2022-08-20T19:12:21.981Z,23.50
2022-08-20T19:15:04.637Z,23.40
2022-08-20T19:17:50.818Z,23.40
2022-08-20T19:20:21.982Z,23.20
2022-08-20T19:22:52.498Z,23.20
2022-08-20T19:25:30.861Z,23.30
2022-08-20T19:28:04.462Z,23.00
2022-08-20T19:30:40.007Z,23.00
2022-08-20T19:38:17.775Z,22.80
2022-08-20T19:40:46.429Z,22.80
2022-08-20T19:43:21.132Z,22.70
2022-08-20T19:45:59.459Z,22.60
2022-08-20T19:48:45.006Z,22.60
2022-08-20T19:51:29.475Z,22.50
2022-08-20T19:56:29.660Z,22.70
2022-08-20T19:59:04.817Z,22.50
2022-08-20T20:01:38.682Z,22.50
2022-08-20T20:04:21.178Z,22.30
2022-08-20T20:06:53.274Z,22.30
2022-08-20T20:09:28.123Z,22.40
2022-08-20T20:12:02.686Z,22.40
2022-08-20T20:14:34.037Z,22.20
2022-08-20T20:17:06.430Z,22.20
2022-08-20T20:19:46.706Z,22.20
2022-08-20T20:22:20.616Z,22.30
2022-08-20T20:25:00.703Z,22.10
2022-08-20T20:30:06.643Z,22.30
2022-08-20T20:32:40.343Z,22.20
2022-08-20T20:35:23.756Z,22.30
2022-08-20T20:38:00.190Z,22.40
2022-08-20T20:40:35.791Z,22.40
2022-08-20T20:43:10.063Z,22.40
2022-08-20T20:45:43.360Z,22.30
2022-08-20T20:48:21.062Z,22.30
2022-08-20T20:50:52.641Z,22.20
2022-08-20T20:53:50.823Z,22.20
2022-08-20T20:56:33.728Z,22.10
2022-08-20T20:59:06.812Z,21.90
2022-08-20T21:04:25.255Z,21.80
2022-08-20T21:07:11.654Z,21.80
2022-08-20T21:12:14.988Z,21.60
2022-08-20T21:17:20.943Z,21.60
2022-08-20T21:19:54.091Z,21.70
2022-08-20T21:27:26.526Z,21.80
2022-08-20T21:29:56.272Z,21.70
2022-08-20T21:32:26.793Z,21.70
2022-08-20T21:45:01.917Z,21.30
2022-08-20T21:50:05.072Z,21.20
2022-08-20T21:52:35.452Z,21.10
2022-08-20T21:57:36.566Z,20.90
2022-08-20T22:00:13.139Z,20.80
2022-08-20T22:02:42.212Z,20.70
2022-08-20T22:05:12.143Z,20.80
2022-08-20T22:07:40.683Z,20.60
2022-08-20T22:10:10.679Z,20.90
2022-08-20T22:12:39.262Z,20.90
2022-08-20T22:15:09.509Z,20.90
2022-08-20T22:17:38.230Z,21.00
2022-08-20T22:20:07.991Z,21.20
2022-08-20T22:22:37.875Z,21.10
2022-08-20T22:25:07.365Z,21.30
2022-08-20T22:27:40.357Z,21.20
2022-08-20T22:30:11.092Z,21.10
2022-08-20T22:32:51.524Z,20.80
2022-08-20T22:35:28.139Z,20.70
2022-08-20T22:37:58.378Z,20.50
2022-08-20T22:40:27.181Z,20.50
2022-08-20T22:42:55.412Z,20.40
2022-08-20T22:45:23.753Z,20.10
2022-08-20T22:47:52.039Z,20.00
2022-08-20T22:50:23.927Z,19.90
2022-08-20T22:52:52.809Z,19.90
2022-08-20T22:55:24.711Z,19.90
2022-08-20T22:57:53.003Z,20.20
2022-08-20T23:00:21.930Z,20.00
2022-08-20T23:02:57.223Z,19.90
2022-08-20T23:05:28.495Z,20.00
2022-08-20T23:07:57.628Z,20.00
2022-08-20T23:10:31.495Z,19.90
2022-08-20T23:12:59.885Z,19.80
2022-08-20T23:15:29.243Z,19.80
2022-08-20T23:18:03.292Z,19.70
2022-08-20T23:20:31.584Z,19.80
2022-08-20T23:22:59.843Z,19.80
2022-08-20T23:25:32.426Z,19.70
2022-08-20T23:28:04.131Z,19.70
2022-08-20T23:30:33.520Z,19.50
2022-08-20T23:33:01.899Z,19.50
2022-08-20T23:35:33.013Z,19.20
2022-08-20T23:38:02.097Z,19.00
2022-08-20T23:40:32.997Z,18.90
2022-08-20T23:43:01.379Z,18.80
2022-08-20T23:45:30.715Z,18.70
2022-08-20T23:47:59.120Z,18.70
2022-08-20T23:50:29.775Z,18.70
2022-08-20T23:52:59.319Z,18.60
2022-08-20T23:55:28.093Z,18.70
2022-08-20T23:57:57.802Z,18.70
